Time;durP1;ratioP1;P1;durP2;ratioP2;P2;SDS_P1;SDS_P2;PMS_P1;PMS_P2;Temp;Humidity;BMP_temperature;BMP_pressure;BME280_temperature;BME280_humidity;BME280_pressure;Samples;Min_cycle;Max_cycle;Signal;HPM_P1;HPM_P2
2022/03/06 00:00:20;;;;;;;14.35;5.93;;;1.30;64.30;;;;;;6267214;28;20045;-81
2022/03/06 00:03:22;;;;;;;15.00;4.95;;;1.30;64.00;;;;;;6268992;28;20105;-82
2022/03/06 00:06:25;;;;;;;11.10;4.18;;;1.20;64.70;;;;;;6267999;28;20080;-80
2022/03/06 00:09:27;;;;;;;12.25;4.90;;;1.20;64.40;;;;;;6258584;28;20041;-82
2022/03/06 00:12:29;;;;;;;13.50;5.82;;;1.20;64.50;;;;;;6256108;28;20057;-83
2022/03/06 00:15:30;;;;;;;15.52;6.30;;;1.10;64.50;;;;;;6258530;28;20050;-84
2022/03/06 00:18:35;;;;;;;12.23;5.15;;;1.00;64.80;;;;;;6257781;28;20049;-83
2022/03/06 00:21:39;;;;;;;15.40;6.95;;;1.00;64.80;;;;;;6255128;28;20045;-83
2022/03/06 00:24:40;;;;;;;12.45;5.25;;;0.90;65.80;;;;;;6248835;28;20058;-79
2022/03/06 00:27:42;;;;;;;16.73;5.25;;;0.90;66.50;;;;;;6248849;28;20052;-79
2022/03/06 00:30:45;;;;;;;14.35;5.80;;;1.00;67.20;;;;;;6250398;28;20045;-82
2022/03/06 00:33:47;;;;;;;15.55;5.28;;;1.00;66.80;;;;;;6250125;28;20049;-84
2022/03/06 00:36:50;;;;;;;13.43;5.20;;;1.00;66.50;;;;;;6256405;28;20180;-84
2022/03/06 00:39:52;;;;;;;15.10;5.95;;;1.00;66.30;;;;;;6255639;28;20055;-83
2022/03/06 00:42:54;;;;;;;18.13;5.53;;;0.90;66.20;;;;;;6253318;28;20057;-83
2022/03/06 00:45:55;;;;;;;13.68;5.35;;;0.80;66.30;;;;;;6251860;28;20124;-82
2022/03/06 00:48:57;;;;;;;11.45;5.57;;;0.80;67.20;;;;;;6254350;28;20052;-81
2022/03/06 00:52:00;;;;;;;16.73;6.20;;;0.70;67.20;;;;;;6250166;28;20051;-82
2022/03/06 00:55:02;;;;;;;17.08;6.45;;;0.70;67.20;;;;;;6250691;28;20128;-81
2022/03/06 00:58:06;;;;;;;19.02;6.00;;;0.60;67.50;;;;;;6252424;28;20045;-83
2022/03/06 01:01:08;;;;;;;17.33;6.18;;;0.60;67.50;;;;;;6250269;28;20041;-82
2022/03/06 01:04:10;;;;;;;15.73;6.20;;;0.60;67.50;;;;;;6250799;28;20053;-82
2022/03/06 01:07:13;;;;;;;12.93;5.45;;;0.50;67.60;;;;;;6251219;28;20049;-82
2022/03/06 01:10:15;;;;;;;13.63;4.97;;;0.50;67.90;;;;;;6251504;28;20049;-82
2022/03/06 01:13:17;;;;;;;16.63;6.43;;;0.40;68.20;;;;;;6250820;28;20121;-83
2022/03/06 01:16:19;;;;;;;17.63;6.03;;;0.40;68.20;;;;;;6254007;28;20059;-83
2022/03/06 01:19:21;;;;;;;14.88;6.45;;;0.30;68.40;;;;;;6251771;28;20045;-82
2022/03/06 01:22:24;;;;;;;11.50;5.93;;;0.30;69.10;;;;;;6250048;28;20045;-82
2022/03/06 01:25:26;;;;;;;19.75;7.07;;;0.20;69.80;;;;;;6250659;28;20045;-83
2022/03/06 01:28:28;;;;;;;13.82;5.82;;;0.20;70.50;;;;;;6251213;28;20069;-82
2022/03/06 01:31:30;;;;;;;19.38;7.25;;;0.30;71.00;;;;;;6250239;28;20128;-82
2022/03/06 01:34:31;;;;;;;15.15;5.68;;;0.30;70.80;;;;;;6249583;28;20073;-83
2022/03/06 01:37:35;;;;;;;13.20;6.18;;;0.40;71.50;;;;;;6249985;28;20072;-83
2022/03/06 01:40:37;;;;;;;15.52;6.25;;;0.40;71.80;;;;;;6249582;28;20128;-83
2022/03/06 01:43:39;;;;;;;17.27;6.70;;;0.40;71.20;;;;;;6249152;28;20120;-82
2022/03/06 01:46:41;;;;;;;13.13;6.93;;;0.40;70.90;;;;;;6250050;28;20049;-83
2022/03/06 01:49:42;;;;;;;17.27;7.05;;;0.50;70.60;;;;;;6250147;28;20133;-83
2022/03/06 01:52:47;;;;;;;18.00;7.00;;;0.50;70.40;;;;;;6249801;28;20046;-83
2022/03/06 01:55:49;;;;;;;13.10;6.20;;;0.60;70.00;;;;;;6252328;28;20052;-83
2022/03/06 01:58:51;;;;;;;13.95;6.32;;;0.70;70.00;;;;;;6253849;28;20055;-83
2022/03/06 02:01:53;;;;;;;13.52;4.30;;;0.70;70.10;;;;;;6257786;28;20264;-82
2022/03/06 02:04:55;;;;;;;14.10;6.05;;;0.70;69.90;;;;;;6257915;28;20485;-83
2022/03/06 02:07:58;;;;;;;15.85;7.68;;;0.70;69.80;;;;;;6256923;28;20073;-81
2022/03/06 02:11:00;;;;;;;25.38;7.80;;;0.70;69.70;;;;;;6258039;28;20061;-84
2022/03/06 02:14:03;;;;;;;14.65;5.70;;;0.70;69.80;;;;;;6270010;22;20118;-80
2022/03/06 02:17:05;;;;;;;14.68;6.28;;;0.70;69.80;;;;;;6255804;28;20137;-81
2022/03/06 02:20:10;;;;;;;14.40;6.28;;;0.70;70.10;;;;;;6256281;28;20426;-81
2022/03/06 02:23:13;;;;;;;17.15;6.80;;;0.70;70.10;;;;;;6248872;28;20052;-81
2022/03/06 02:26:14;;;;;;;15.48;6.70;;;0.70;70.10;;;;;;6231732;28;20080;-80
2022/03/06 02:29:16;;;;;;;19.00;7.40;;;0.70;70.20;;;;;;6231066;28;20123;-79
2022/03/06 02:32:19;;;;;;;17.88;6.80;;;0.60;70.30;;;;;;6230975;28;20068;-81
2022/03/06 02:35:22;;;;;;;16.27;6.80;;;0.50;71.00;;;;;;6230239;28;20041;-80
2022/03/06 02:38:26;;;;;;;17.83;7.22;;;0.50;71.00;;;;;;6231931;28;20119;-81
2022/03/06 02:41:34;;;;;;;17.50;6.95;;;0.50;71.30;;;;;;6231338;28;20050;-81
2022/03/06 02:44:37;;;;;;;15.07;5.93;;;0.50;71.40;;;;;;6231967;28;20046;-81
2022/03/06 02:47:39;;;;;;;18.38;6.57;;;0.40;71.10;;;;;;6232071;28;20048;-81
2022/03/06 02:50:41;;;;;;;18.65;7.63;;;0.30;71.40;;;;;;6232030;28;20475;-81
2022/03/06 02:53:45;;;;;;;16.08;6.88;;;0.30;71.70;;;;;;6231362;28;20096;-81
2022/03/06 02:56:47;;;;;;;19.15;7.25;;;0.20;72.20;;;;;;6230190;28;20046;-81
2022/03/06 02:59:49;;;;;;;16.42;7.00;;;0.10;72.70;;;;;;6230739;28;20044;-81
2022/03/06 03:02:51;;;;;;;16.02;6.43;;;0.10;73.10;;;;;;6231194;28;20135;-82
2022/03/06 03:05:53;;;;;;;19.90;7.15;;;0.00;73.00;;;;;;6230234;28;20041;-81
2022/03/06 03:08:56;;;;;;;14.80;6.78;;;-0.10;73.20;;;;;;6230559;28;20153;-81
2022/03/06 03:11:58;;;;;;;18.33;6.20;;;-0.20;73.90;;;;;;6229217;28;20183;-81
2022/03/06 03:14:59;;;;;;;16.48;6.93;;;-0.30;73.70;;;;;;6230517;28;20558;-81
2022/03/06 03:18:01;;;;;;;16.42;6.43;;;-0.40;73.70;;;;;;6230596;28;20057;-81
2022/03/06 03:21:03;;;;;;;18.40;6.35;;;-0.40;73.80;;;;;;6229927;28;20072;-81
2022/03/06 03:24:08;;;;;;;17.77;6.95;;;-0.50;74.30;;;;;;6231082;28;20525;-80
2022/03/06 03:27:10;;;;;;;13.55;5.80;;;-0.50;74.70;;;;;;6230686;28;20533;-81
2022/03/06 03:30:14;;;;;;;18.15;6.55;;;-0.60;74.50;;;;;;6231333;28;20064;-80
2022/03/06 03:33:16;;;;;;;11.43;5.90;;;-0.60;74.70;;;;;;6230379;28;20072;-81
2022/03/06 03:36:17;;;;;;;18.98;6.38;;;-0.60;74.90;;;;;;6229974;28;20140;-81
2022/03/06 03:39:21;;;;;;;12.93;5.80;;;-0.60;74.80;;;;;;6229815;28;20045;-81
2022/03/06 03:42:22;;;;;;;17.50;6.55;;;-0.60;74.90;;;;;;6230366;28;20153;-81
2022/03/06 03:45:24;;;;;;;18.73;6.63;;;-0.60;75.50;;;;;;6229812;28;20048;-81
2022/03/06 03:48:27;;;;;;;19.25;6.82;;;-0.50;75.60;;;;;;6229611;28;20045;-81
2022/03/06 03:51:28;;;;;;;15.00;7.38;;;-0.50;76.00;;;;;;6229572;28;20046;-81
2022/03/06 03:54:32;;;;;;;13.60;5.03;;;-0.40;76.10;;;;;;6229571;28;20133;-81
2022/03/06 03:57:33;;;;;;;20.05;7.97;;;-0.40;75.90;;;;;;6217183;28;20042;-81
2022/03/06 04:00:35;;;;;;;17.20;7.43;;;-0.30;75.70;;;;;;6221821;28;20045;-81
2022/03/06 04:03:37;;;;;;;15.15;6.97;;;-0.30;75.40;;;;;;6228479;28;20073;-82
2022/03/06 04:06:38;;;;;;;15.57;7.18;;;-0.30;75.70;;;;;;6228237;28;20181;-80
2022/03/06 04:09:42;;;;;;;16.92;7.15;;;-0.30;75.90;;;;;;6229417;28;20412;-80
2022/03/06 04:12:46;;;;;;;15.13;6.45;;;-0.30;75.70;;;;;;6227868;28;20057;-81
2022/03/06 04:15:48;;;;;;;13.77;6.38;;;-0.30;75.70;;;;;;6227611;28;20125;-81
2022/03/06 04:18:50;;;;;;;16.15;5.88;;;-0.30;75.60;;;;;;6228973;28;20058;-81
2022/03/06 04:21:52;;;;;;;22.55;7.90;;;-0.30;75.30;;;;;;6227466;28;20511;-81
2022/03/06 04:24:55;;;;;;;19.50;7.35;;;-0.30;75.40;;;;;;6226797;28;20105;-81
2022/03/06 04:27:56;;;;;;;17.60;6.88;;;-0.30;75.80;;;;;;6228454;28;20064;-81
2022/03/06 04:30:58;;;;;;;15.82;6.65;;;-0.30;75.80;;;;;;6228782;28;20060;-81
2022/03/06 04:34:00;;;;;;;16.35;6.38;;;-0.30;75.60;;;;;;6229484;28;20050;-82
2022/03/06 04:37:02;;;;;;;16.05;5.82;;;-0.40;76.00;;;;;;6228759;28;20098;-81
2022/03/06 04:40:06;;;;;;;20.92;7.18;;;-0.40;75.80;;;;;;6228698;28;20050;-81
2022/03/06 04:43:07;;;;;;;16.55;6.97;;;-0.50;76.20;;;;;;6228673;28;20050;-81
2022/03/06 04:46:09;;;;;;;22.40;8.15;;;-0.50;75.90;;;;;;6226815;28;20050;-81
2022/03/06 04:49:11;;;;;;;21.60;8.20;;;-0.50;76.20;;;;;;6226374;28;20151;-83
2022/03/06 04:52:13;;;;;;;15.38;6.70;;;-0.60;76.70;;;;;;6225983;28;20050;-81
2022/03/06 04:55:19;;;;;;;15.25;7.07;;;-0.60;76.50;;;;;;6225425;28;20132;-81
2022/03/06 04:58:21;;;;;;;18.20;7.50;;;-0.60;76.30;;;;;;6225558;28;20556;-81
2022/03/06 05:01:22;;;;;;;16.30;6.80;;;-0.70;76.20;;;;;;6225123;28;20061;-81
2022/03/06 05:04:24;;;;;;;17.17;7.22;;;-0.70;76.20;;;;;;6226151;28;20420;-83
2022/03/06 05:07:26;;;;;;;16.65;8.07;;;-0.80;76.50;;;;;;6226584;28;20128;-82
2022/03/06 05:10:29;;;;;;;17.92;7.53;;;-0.80;76.80;;;;;;6226688;28;20046;-81
2022/03/06 05:13:31;;;;;;;19.35;7.32;;;-0.80;77.30;;;;;;6225020;28;20512;-81
2022/03/06 05:16:33;;;;;;;20.17;7.28;;;-0.80;77.40;;;;;;6222316;28;20161;-82
2022/03/06 05:19:35;;;;;;;16.05;6.05;;;-0.80;78.20;;;;;;6223156;28;20053;-81
2022/03/06 05:22:36;;;;;;;15.18;6.15;;;-0.80;78.20;;;;;;6223479;28;20495;-81
2022/03/06 05:25:40;;;;;;;20.15;7.95;;;-0.70;79.70;;;;;;6251183;28;20068;-82
2022/03/06 05:28:41;;;;;;;16.55;7.90;;;-0.70;78.70;;;;;;6240910;28;20495;-81
2022/03/06 05:31:43;;;;;;;18.40;7.05;;;-0.70;78.30;;;;;;6225734;28;20057;-80
2022/03/06 05:34:45;;;;;;;15.27;8.15;;;-0.70;78.50;;;;;;6224115;28;20507;-80
2022/03/06 05:37:47;;;;;;;16.58;7.00;;;-0.70;78.60;;;;;;6225178;28;20156;-83
2022/03/06 05:40:50;;;;;;;17.92;7.47;;;-0.70;78.30;;;;;;6226093;28;20060;-83
2022/03/06 05:43:52;;;;;;;15.13;6.75;;;-0.70;78.40;;;;;;6225417;28;20450;-81
2022/03/06 05:46:53;;;;;;;16.38;7.80;;;-0.70;78.30;;;;;;6226294;28;20052;-81
2022/03/06 05:49:55;;;;;;;19.50;7.28;;;-0.80;78.20;;;;;;6224748;28;20054;-83
2022/03/06 05:52:57;;;;;;;17.48;6.88;;;-0.90;78.00;;;;;;6242472;28;20049;-81
2022/03/06 05:56:00;;;;;;;22.65;7.80;;;-0.90;78.30;;;;;;6249465;28;20075;-80
2022/03/06 05:59:03;;;;;;;18.55;7.25;;;-0.90;78.30;;;;;;6251746;28;20406;-81
2022/03/06 06:02:05;;;;;;;17.52;6.70;;;-0.90;79.10;;;;;;6250921;28;20050;-82
2022/03/06 06:05:08;;;;;;;16.45;7.10;;;-0.90;78.80;;;;;;6250446;28;20046;-82
2022/03/06 06:08:10;;;;;;;16.88;6.32;;;-0.90;78.50;;;;;;6250165;28;20046;-82
2022/03/06 06:11:13;;;;;;;17.92;6.43;;;-1.00;78.60;;;;;;6250164;28;20559;-82
2022/03/06 06:14:15;;;;;;;20.05;7.70;;;-1.00;78.90;;;;;;6250022;28;20457;-82
2022/03/06 06:17:16;;;;;;;22.70;9.32;;;-1.00;78.60;;;;;;6251515;28;20055;-83
2022/03/06 06:20:18;;;;;;;21.90;7.43;;;-0.90;79.00;;;;;;6226967;28;20048;-83
2022/03/06 06:23:20;;;;;;;16.85;7.90;;;-0.90;79.50;;;;;;6247587;28;20414;-82
2022/03/06 06:26:24;;;;;;;15.23;6.32;;;-0.80;79.30;;;;;;6249664;28;20049;-81
2022/03/06 06:29:27;;;;;;;17.83;6.68;;;-0.60;79.00;;;;;;6249706;28;20119;-83
2022/03/06 06:32:29;;;;;;;17.67;7.60;;;-0.50;78.90;;;;;;6250020;28;20049;-82
2022/03/06 06:35:32;;;;;;;20.55;8.40;;;-0.40;78.70;;;;;;6250044;28;20042;-81
2022/03/06 06:38:34;;;;;;;16.80;8.00;;;-0.30;78.50;;;;;;6252431;28;20060;-82
2022/03/06 06:41:37;;;;;;;21.83;9.15;;;-0.20;78.50;;;;;;6250491;28;20051;-82
2022/03/06 06:44:38;;;;;;;19.08;6.70;;;-0.10;77.90;;;;;;6250095;28;20045;-83
2022/03/06 06:47:52;;;;;;;18.88;8.20;;;0.00;77.60;;;;;;6253400;28;20048;-81
2022/03/06 06:50:54;;;;;;;27.17;10.20;;;0.10;77.40;;;;;;6250737;28;20422;-83
2022/03/06 06:53:55;;;;;;;17.33;7.90;;;0.30;77.20;;;;;;6255223;28;20029;-84
2022/03/06 06:56:58;;;;;;;18.77;8.27;;;0.40;77.00;;;;;;6254421;28;20065;-84
2022/03/06 07:00:01;;;;;;;19.80;7.38;;;0.70;76.80;;;;;;6253822;28;20041;-83
2022/03/06 07:03:03;;;;;;;20.15;7.43;;;0.90;76.00;;;;;;6244559;28;20138;-82
2022/03/06 07:06:04;;;;;;;17.92;7.65;;;1.20;75.10;;;;;;6251123;28;20060;-85
2022/03/06 07:09:06;;;;;;;13.98;7.13;;;1.50;74.30;;;;;;6255733;28;20139;-83
2022/03/06 07:12:11;;;;;;;14.68;6.28;;;1.80;73.50;;;;;;6253449;28;20052;-83
2022/03/06 07:15:14;;;;;;;20.23;8.45;;;2.10;73.00;;;;;;6252345;28;20060;-82
2022/03/06 07:18:16;;;;;;;20.67;7.82;;;2.50;71.10;;;;;;6251575;28;20136;-82
2022/03/06 07:21:17;;;;;;;17.88;8.55;;;2.70;70.60;;;;;;6225627;28;20056;-82
2022/03/06 07:24:19;;;;;;;17.17;7.75;;;3.00;69.70;;;;;;6240842;28;20124;-81
2022/03/06 07:27:22;;;;;;;15.40;6.93;;;3.40;69.30;;;;;;6249482;28;20093;-81
2022/03/06 07:30:25;;;;;;;22.70;10.05;;;3.80;68.20;;;;;;6250559;28;20107;-81
2022/03/06 07:33:27;;;;;;;15.48;7.90;;;4.30;66.80;;;;;;6250286;28;20068;-81
2022/03/06 07:36:29;;;;;;;56.95;29.80;;;4.70;64.80;;;;;;6249330;28;20046;-82
2022/03/06 07:39:31;;;;;;;47.20;25.00;;;5.00;62.40;;;;;;6250560;28;20124;-82
2022/03/06 07:42:34;;;;;;;25.10;12.63;;;5.20;61.40;;;;;;6250951;28;20053;-83
2022/03/06 07:45:36;;;;;;;33.03;19.95;;;5.50;59.50;;;;;;6249454;28;20063;-86
2022/03/06 07:48:38;;;;;;;24.65;12.27;;;5.70;59.20;;;;;;6249031;28;20053;-86
2022/03/06 07:51:40;;;;;;;22.05;7.82;;;6.00;58.70;;;;;;6237132;28;20050;-86
2022/03/06 07:54:41;;;;;;;19.45;8.02;;;6.30;58.20;;;;;;6248019;28;20045;-86
2022/03/06 07:57:44;;;;;;;18.15;9.25;;;6.90;56.80;;;;;;6248491;28;20080;-85
2022/03/06 08:00:46;;;;;;;16.52;7.55;;;7.10;54.90;;;;;;6248429;28;20418;-85
2022/03/06 08:03:48;;;;;;;14.80;7.22;;;7.40;53.90;;;;;;6248729;28;20111;-86
2022/03/06 08:06:50;;;;;;;19.27;8.05;;;7.70;53.10;;;;;;6248671;28;20053;-84
2022/03/06 08:09:52;;;;;;;16.83;8.23;;;8.30;51.20;;;;;;6248258;28;20414;-85
2022/03/06 08:16:01;;;;;;;12.60;6.28;;;9.60;47.70;;;;;;6255397;28;20048;-82
2022/03/06 08:19:03;;;;;;;14.45;7.68;;;10.10;46.00;;;;;;6256255;28;20072;-82
2022/03/06 08:22:07;;;;;;;20.60;7.65;;;10.20;45.00;;;;;;6258901;28;20049;-82
2022/03/06 08:25:11;;;;;;;20.10;8.18;;;10.10;44.80;;;;;;6261351;28;20042;-82
2022/03/06 08:28:13;;;;;;;17.80;7.03;;;9.90;44.90;;;;;;6265048;28;20105;-81
2022/03/06 08:31:16;;;;;;;14.98;6.82;;;9.70;46.30;;;;;;6255291;28;20475;-83
2022/03/06 08:34:18;;;;;;;16.05;7.22;;;9.90;46.90;;;;;;6255246;28;20045;-80
2022/03/06 08:37:21;;;;;;;15.02;7.85;;;10.00;45.80;;;;;;6252748;28;20056;-80
2022/03/06 08:40:23;;;;;;;31.48;6.53;;;10.60;45.70;;;;;;6253670;28;20045;-83
2022/03/06 08:43:25;;;;;;;14.93;7.30;;;11.50;43.30;;;;;;6255769;28;20045;-82
2022/03/06 08:46:28;;;;;;;19.92;8.48;;;11.90;42.00;;;;;;6253605;28;20134;-82
2022/03/06 08:49:31;;;;;;;16.38;8.43;;;12.60;40.80;;;;;;6254715;28;20049;-79
2022/03/06 08:52:33;;;;;;;19.02;7.68;;;13.30;40.00;;;;;;6250094;28;20478;-83
2022/03/06 08:55:35;;;;;;;15.70;8.57;;;13.70;38.50;;;;;;6254731;28;20461;-79
2022/03/06 08:58:37;;;;;;;14.15;7.32;;;14.40;37.50;;;;;;6256449;28;20052;-80
2022/03/06 09:01:40;;;;;;;16.88;8.02;;;14.80;37.00;;;;;;6262289;28;20051;-84
2022/03/06 09:04:42;;;;;;;16.98;8.07;;;15.40;35.50;;;;;;6255993;28;20148;-81
2022/03/06 09:07:43;;;;;;;12.90;7.13;;;15.40;35.20;;;;;;6254904;28;20037;-80
2022/03/06 09:10:45;;;;;;;12.60;6.88;;;15.50;35.20;;;;;;6255182;28;20057;-81
2022/03/06 09:13:47;;;;;;;15.93;8.75;;;15.60;34.40;;;;;;6263111;28;20124;-84
2022/03/06 09:16:50;;;;;;;14.32;7.90;;;15.80;34.00;;;;;;6257754;28;20045;-83
2022/03/06 09:19:52;;;;;;;14.07;7.50;;;15.80;34.30;;;;;;6253756;28;20132;-82
2022/03/06 09:22:55;;;;;;;16.30;7.97;;;16.10;33.80;;;;;;6239793;28;20068;-80
2022/03/06 09:25:58;;;;;;;13.52;7.68;;;15.60;32.80;;;;;;6226425;28;20135;-82
2022/03/06 09:29:00;;;;;;;13.05;7.38;;;14.90;34.20;;;;;;6238480;28;20045;-81
2022/03/06 09:32:05;;;;;;;19.25;8.80;;;14.70;34.80;;;;;;6229906;28;20049;-81
2022/03/06 09:35:09;;;;;;;12.40;6.45;;;14.40;34.50;;;;;;6229881;28;20069;-84
2022/03/06 09:38:11;;;;;;;18.50;7.38;;;13.60;35.40;;;;;;6233385;28;20058;-84
2022/03/06 09:41:17;;;;;;;13.45;5.68;;;12.90;36.90;;;;;;6234815;28;20053;-83
2022/03/06 09:44:19;;;;;;;13.95;7.28;;;12.00;38.00;;;;;;6234223;28;20046;-82
2022/03/06 09:47:24;;;;;;;16.27;8.25;;;11.40;39.20;;;;;;6232101;28;20050;-82
2022/03/06 09:50:27;;;;;;;18.35;9.15;;;10.80;40.30;;;;;;6233322;28;20054;-82
2022/03/06 09:53:29;;;;;;;17.50;8.90;;;10.50;41.00;;;;;;6255496;28;20048;-82
2022/03/06 09:56:31;;;;;;;14.50;7.70;;;10.50;41.90;;;;;;6256842;28;20073;-82
2022/03/06 09:59:34;;;;;;;16.92;8.23;;;11.00;41.40;;;;;;6258412;28;20037;-81
2022/03/06 10:02:53;;;;;;;15.90;7.05;;;11.20;40.80;;;;;;6259037;28;20045;-79
2022/03/06 10:05:54;;;;;;;14.05;7.05;;;11.00;40.10;;;;;;6256620;28;20514;-83
2022/03/06 10:09:04;;;;;;;16.00;7.90;;;10.80;40.70;;;;;;6258499;28;20049;-83
2022/03/06 10:12:19;;;;;;;15.68;7.72;;;11.10;40.50;;;;;;6257899;28;20051;-82
2022/03/06 10:15:21;;;;;;;16.95;8.27;;;11.20;40.10;;;;;;6256367;28;20089;-83
2022/03/06 10:18:24;;;;;;;15.02;6.90;;;11.50;39.40;;;;;;6258141;28;20064;-83
2022/03/06 10:21:27;;;;;;;17.27;7.43;;;11.60;38.30;;;;;;6254756;28;20073;-82
2022/03/06 10:24:29;;;;;;;13.02;6.22;;;11.70;38.70;;;;;;6250909;28;20046;-83
2022/03/06 10:27:47;;;;;;;13.20;7.53;;;11.90;38.00;;;;;;6260355;28;20045;-82
2022/03/06 10:30:49;;;;;;;13.98;7.32;;;12.00;37.10;;;;;;6258160;28;20053;-82
2022/03/06 10:34:13;;;;;;;14.13;7.18;;;11.90;37.80;;;;;;6257564;28;20049;-82
2022/03/06 10:37:15;;;;;;;12.68;7.15;;;12.10;36.60;;;;;;6251640;28;20048;-82
2022/03/06 10:40:31;;;;;;;15.45;7.07;;;12.30;36.40;;;;;;6259168;28;20108;-84
2022/03/06 10:43:35;;;;;;;15.35;7.63;;;12.50;35.70;;;;;;6256688;28;20048;-81
2022/03/06 10:46:38;;;;;;;14.07;6.63;;;12.80;35.60;;;;;;6256933;28;20499;-81
2022/03/06 10:49:41;;;;;;;13.38;7.20;;;13.30;35.10;;;;;;6258681;28;20045;-81
2022/03/06 10:52:43;;;;;;;18.23;9.68;;;13.70;34.60;;;;;;6253047;28;20076;-82
2022/03/06 10:55:45;;;;;;;13.27;7.20;;;13.80;33.50;;;;;;6255409;28;20087;-81
2022/03/06 10:58:48;;;;;;;13.15;6.03;;;13.40;34.10;;;;;;6257341;28;20132;-81
2022/03/06 11:01:50;;;;;;;11.43;5.78;;;13.00;34.00;;;;;;6258375;28;20092;-83
2022/03/06 11:04:57;;;;;;;13.57;7.28;;;12.60;34.50;;;;;;6259231;28;20104;-82
2022/03/06 11:07:59;;;;;;;14.25;6.40;;;12.00;34.90;;;;;;6257876;28;20658;-83
2022/03/06 11:11:02;;;;;;;12.10;6.35;;;11.30;35.50;;;;;;6259958;28;20071;-84
2022/03/06 11:14:05;;;;;;;11.43;7.40;;;11.00;36.30;;;;;;6259267;28;20100;-82
2022/03/06 11:17:07;;;;;;;10.80;5.95;;;10.80;36.50;;;;;;6256873;28;20055;-82
2022/03/06 11:20:11;;;;;;;8.93;4.45;;;10.50;36.00;;;;;;6255920;28;20447;-81
2022/03/06 11:23:29;;;;;;;10.18;5.65;;;10.20;36.10;;;;;;6241070;28;20060;-81
2022/03/06 11:26:56;;;;;;;14.75;6.03;;;10.10;37.20;;;;;;6230907;28;20053;-82
2022/03/06 11:30:18;;;;;;;13.73;5.85;;;10.00;36.10;;;;;;6234054;28;20060;-81
2022/03/06 11:33:20;;;;;;;13.38;5.60;;;9.70;36.70;;;;;;6233952;28;20135;-82
2022/03/06 11:36:25;;;;;;;11.88;6.60;;;9.60;37.10;;;;;;6240825;28;20065;-80
2022/03/06 11:39:49;;;;;;;12.75;4.95;;;9.70;37.60;;;;;;6236018;28;20042;-83
2022/03/06 11:42:56;;;;;;;9.73;5.53;;;9.90;37.40;;;;;;6235429;28;20050;-82
2022/03/06 11:46:09;;;;;;;8.48;5.15;;;10.00;37.00;;;;;;6234374;28;20049;-83
2022/03/06 11:49:11;;;;;;;11.60;5.57;;;9.80;37.10;;;;;;6234590;28;20065;-83
2022/03/06 11:52:31;;;;;;;11.30;5.47;;;9.70;37.20;;;;;;6245629;28;20109;-83
2022/03/06 11:55:35;;;;;;;14.18;7.68;;;9.40;37.50;;;;;;6257572;28;20046;-83
2022/03/06 11:58:53;;;;;;;11.35;5.43;;;9.30;37.90;;;;;;6259829;28;20049;-82
2022/03/06 12:01:57;;;;;;;14.77;6.43;;;9.30;38.00;;;;;;6257937;28;20050;-83
2022/03/06 12:04:59;;;;;;;9.50;5.20;;;9.60;38.00;;;;;;6256161;28;20136;-83
2022/03/06 12:08:02;;;;;;;10.68;5.25;;;9.50;37.80;;;;;;6257985;28;20053;-82
2022/03/06 12:11:04;;;;;;;10.10;4.60;;;9.30;37.70;;;;;;6257709;28;20131;-81
2022/03/06 12:14:13;;;;;;;10.13;5.95;;;9.10;38.30;;;;;;6257885;28;20053;-82
2022/03/06 12:17:19;;;;;;;8.73;4.68;;;9.00;38.50;;;;;;6256674;28;20051;-83
2022/03/06 12:20:29;;;;;;;11.68;5.10;;;9.20;38.40;;;;;;6257437;28;20046;-82
2022/03/06 12:23:33;;;;;;;11.02;5.95;;;9.60;37.70;;;;;;6256452;28;20136;-83
2022/03/06 12:26:45;;;;;;;8.45;5.03;;;10.10;37.40;;;;;;6242148;28;20092;-81
2022/03/06 12:29:56;;;;;;;8.85;4.65;;;10.80;35.40;;;;;;6228841;28;20452;-81
2022/03/06 12:32:58;;;;;;;10.13;4.75;;;11.20;34.50;;;;;;6230200;28;20549;-83
2022/03/06 12:36:23;;;;;;;10.05;5.18;;;11.40;34.10;;;;;;6231646;28;20049;-80
2022/03/06 12:39:26;;;;;;;7.18;4.13;;;12.00;33.70;;;;;;6234926;28;20061;-81
2022/03/06 12:42:31;;;;;;;7.82;4.55;;;12.30;32.60;;;;;;6237019;28;20050;-83
2022/03/06 12:45:35;;;;;;;9.85;5.80;;;12.60;33.70;;;;;;6231412;28;20042;-81
2022/03/06 12:48:37;;;;;;;7.50;5.03;;;12.60;32.50;;;;;;6232912;28;20176;-83
2022/03/06 12:51:40;;;;;;;10.10;5.00;;;12.30;32.50;;;;;;6233339;28;20072;-81
2022/03/06 12:54:46;;;;;;;8.32;4.43;;;12.00;32.60;;;;;;6253354;28;20053;-81
2022/03/06 12:57:50;;;;;;;9.23;5.28;;;11.90;32.90;;;;;;6254469;28;20598;-80
2022/03/06 13:00:52;;;;;;;9.00;4.95;;;12.10;32.60;;;;;;6256758;28;20056;-81
2022/03/06 13:03:58;;;;;;;6.72;4.28;;;12.10;32.80;;;;;;6254828;28;20045;-82
2022/03/06 13:07:00;;;;;;;9.93;5.10;;;12.10;33.10;;;;;;6251604;28;20104;-81
2022/03/06 13:10:07;;;;;;;7.18;4.43;;;12.20;33.40;;;;;;6252967;28;20114;-80
2022/03/06 13:13:09;;;;;;;7.93;5.53;;;12.20;32.50;;;;;;6254061;28;20060;-81
2022/03/06 13:16:10;;;;;;;9.05;5.10;;;12.10;32.50;;;;;;6253553;28;20049;-81
2022/03/06 13:19:12;;;;;;;7.82;4.78;;;11.90;32.70;;;;;;6251915;28;20161;-79
2022/03/06 13:22:16;;;;;;;9.85;4.88;;;11.70;32.70;;;;;;6235590;28;20050;-80
2022/03/06 13:25:23;;;;;;;9.60;4.88;;;11.60;33.20;;;;;;6236745;28;20116;-82
2022/03/06 13:28:25;;;;;;;10.35;4.63;;;11.60;32.90;;;;;;6230262;28;20139;-80
2022/03/06 13:31:27;;;;;;;12.43;5.28;;;11.60;33.10;;;;;;6231078;28;20135;-81
2022/03/06 13:34:29;;;;;;;8.75;4.57;;;11.70;33.30;;;;;;6230506;28;20100;-81
2022/03/06 13:37:33;;;;;;;6.90;4.10;;;12.00;32.40;;;;;;6229068;28;20511;-80
2022/03/06 13:40:38;;;;;;;13.30;5.25;;;12.00;32.20;;;;;;6228841;28;20057;-81
2022/03/06 13:43:47;;;;;;;12.80;4.82;;;12.20;32.20;;;;;;6229975;28;20048;-82
2022/03/06 13:46:49;;;;;;;7.65;4.55;;;12.10;31.60;;;;;;6228299;28;20046;-80
2022/03/06 13:50:00;;;;;;;8.32;4.72;;;11.90;32.20;;;;;;6229378;28;20586;-81
2022/03/06 13:53:02;;;;;;;7.22;4.80;;;11.90;32.70;;;;;;6247525;28;20442;-79
2022/03/06 13:56:06;;;;;;;9.90;4.95;;;12.10;32.00;;;;;;6255632;28;20129;-83
2022/03/06 13:59:11;;;;;;;8.55;5.00;;;11.80;32.00;;;;;;6259596;28;20059;-81
2022/03/06 14:02:13;;;;;;;10.57;3.67;;;11.60;32.40;;;;;;6258658;28;20049;-82
2022/03/06 14:05:14;;;;;;;9.50;4.10;;;11.30;32.20;;;;;;6257179;28;20054;-82
2022/03/06 14:08:18;;;;;;;9.65;4.93;;;11.30;33.10;;;;;;6258813;28;20051;-82
2022/03/06 14:11:26;;;;;;;6.45;3.63;;;11.40;33.20;;;;;;6258985;28;20515;-82
2022/03/06 14:14:40;;;;;;;10.63;6.00;;;11.60;33.10;;;;;;6260991;28;20104;-80
2022/03/06 14:17:53;;;;;;;8.50;4.43;;;11.60;34.00;;;;;;6256165;28;20215;-81
2022/03/06 14:20:54;;;;;;;10.88;5.60;;;12.10;32.50;;;;;;6251244;28;20526;-79
2022/03/06 14:23:58;;;;;;;9.77;5.13;;;12.40;32.70;;;;;;6256564;28;20056;-80
2022/03/06 14:27:01;;;;;;;8.18;4.55;;;12.50;31.50;;;;;;6255680;28;20045;-80
2022/03/06 14:30:05;;;;;;;7.43;4.40;;;12.20;32.00;;;;;;6256633;28;20069;-79
2022/03/06 14:33:10;;;;;;;7.60;3.92;;;11.90;32.00;;;;;;6257393;28;20139;-79
2022/03/06 14:36:12;;;;;;;7.15;4.63;;;11.70;32.00;;;;;;6257613;28;20048;-80
2022/03/06 14:39:14;;;;;;;9.90;4.47;;;11.60;32.30;;;;;;6257795;28;20117;-82
2022/03/06 14:42:17;;;;;;;7.55;4.15;;;11.50;32.20;;;;;;6258874;28;20063;-81
2022/03/06 14:45:19;;;;;;;8.52;3.35;;;11.40;32.10;;;;;;6258869;28;20041;-80
2022/03/06 14:48:21;;;;;;;8.65;4.20;;;11.30;31.90;;;;;;6260051;28;20124;-81
2022/03/06 14:51:23;;;;;;;8.82;4.68;;;11.10;32.30;;;;;;6252325;28;20049;-81
2022/03/06 14:54:24;;;;;;;7.97;4.65;;;11.00;33.10;;;;;;6258801;28;20422;-83
2022/03/06 14:57:31;;;;;;;7.13;4.40;;;11.10;33.20;;;;;;6257908;28;20578;-81
2022/03/06 15:00:33;;;;;;;8.02;4.18;;;11.10;33.10;;;;;;6257032;28;20052;-82
2022/03/06 15:03:35;;;;;;;7.30;3.90;;;10.90;32.80;;;;;;6256652;28;20041;-82
2022/03/06 15:06:37;;;;;;;7.07;4.57;;;10.90;33.30;;;;;;6254801;28;20053;-82
2022/03/06 15:09:39;;;;;;;7.57;4.07;;;10.80;33.30;;;;;;6257591;28;20422;-82
2022/03/06 15:12:43;;;;;;;6.53;3.95;;;10.70;33.40;;;;;;6256725;28;20049;-82
2022/03/06 15:15:47;;;;;;;7.53;3.92;;;10.40;34.30;;;;;;6256485;28;20052;-81
2022/03/06 15:18:48;;;;;;;8.63;4.57;;;10.40;34.10;;;;;;6258235;28;20136;-80
2022/03/06 15:21:52;;;;;;;7.30;4.00;;;10.30;33.90;;;;;;6253120;28;20160;-80
2022/03/06 15:24:55;;;;;;;8.35;4.50;;;10.30;34.20;;;;;;6245655;28;20058;-79
2022/03/06 15:27:59;;;;;;;12.00;4.07;;;10.10;34.50;;;;;;6253240;28;20116;-80
2022/03/06 15:31:02;;;;;;;10.50;4.93;;;9.90;34.90;;;;;;6231918;28;20057;-82
2022/03/06 15:34:04;;;;;;;16.50;6.63;;;9.70;35.00;;;;;;6234334;28;20046;-80
2022/03/06 15:37:07;;;;;;;12.15;5.50;;;9.50;35.30;;;;;;6231128;28;20088;-80
2022/03/06 15:40:17;;;;;;;11.85;5.70;;;9.30;35.80;;;;;;6231562;28;20535;-82
2022/03/06 15:43:21;;;;;;;8.90;4.78;;;9.30;35.90;;;;;;6231910;28;20042;-82
2022/03/06 15:46:23;;;;;;;9.45;5.25;;;9.30;35.70;;;;;;6232037;28;20056;-82
2022/03/06 15:49:24;;;;;;;6.95;4.68;;;9.10;35.80;;;;;;6233165;28;20093;-83
2022/03/06 15:52:26;;;;;;;6.50;4.20;;;8.90;36.20;;;;;;6245736;28;20064;-83